Terminal Aerodrome Forecast
Issued by NWS

Home | Current Version | Previous Version | Text Only | Print | Product List | Glossary On
Versions: 1 2 3 4 5 6 7 8 9 10 11 12 13 14 15 16 17 18 19 20 21
000
FTUS41 KBGM 260531
TAFRME
TAF
KRME 260531Z 2606/2706 10005KT P6SM SCT035 BKN100
      TEMPO 2606/2608 BKN025
     FM260800 10005KT P6SM BKN250
      TEMPO 2608/2612 2SM BR
     FM261200 12010KT P6SM BKN035
      TEMPO 2612/2616 5SM -FZRA BKN025
     FM261600 12010KT P6SM -RA BKN015=

USA.gov is the U.S. government's official web portal to all federal, state and local government web resources and services.